Terminal Aerodrome Forecast
Issued by NWS

Home | Current Version | Previous Version | Text Only | Print | Product List | Glossary On
Versions: 1 2 3 4 5 6 7 8 9 10 11 12 13 14 15 16 17 18 19 20
493
FTUS46 KEKA 281122
TAFCEC
TAF
KCEC 281122Z 2812/2912 07003KT P6SM BKN120
     FM281700 VRB06KT P6SM BKN250
     FM282000 24008KT P6SM BKN250
     FM290000 18006KT P6SM OVC250
     FM290500 16006KT P6SM OVC100
     FM290900 15008KT P6SM OVC100=

USA.gov is the U.S. government's official web portal to all federal, state and local government web resources and services.